Time;durP1;ratioP1;P1;durP2;ratioP2;P2;SDS_P1;SDS_P2;PMS_P1;PMS_P2;Temp;Humidity;BMP_temperature;BMP_pressure;BME280_temperature;BME280_humidity;BME280_pressure;Samples;Min_cycle;Max_cycle;Signal;HPM_P1;HPM_P2
2023/03/04 00:02:08;;;;;;;;;;;5.70;84.70;;;;;;5094253;28;19953;-90
2023/03/04 00:04:34;;;;;;;;;;;5.80;84.90;;;;;;5112719;28;19989;-89
2023/03/04 00:07:00;;;;;;;;;;;5.80;85.30;;;;;;5113807;28;19939;-89
2023/03/04 00:09:25;;;;;;;;;;;5.80;85.40;;;;;;5114554;28;19957;-89
2023/03/04 00:11:51;;;;;;;;;;;5.70;85.10;;;;;;5114774;28;20389;-89
2023/03/04 00:14:16;;;;;;;;;;;5.70;84.90;;;;;;5112781;28;19966;-89
2023/03/04 00:16:42;;;;;;;;;;;5.70;84.60;;;;;;5114447;28;20309;-89
2023/03/04 00:19:08;;;;;;;;;;;5.70;84.50;;;;;;5114110;28;19987;-89
2023/03/04 00:21:34;;;;;;;;;;;5.60;84.40;;;;;;5114370;28;19946;-89
2023/03/04 00:23:59;;;;;;;;;;;5.60;84.10;;;;;;5114255;28;19939;-89
2023/03/04 00:26:25;;;;;;;;;;;5.60;83.60;;;;;;5114534;28;19981;-89
2023/03/04 00:28:50;;;;;;;;;;;5.50;83.80;;;;;;5114273;28;20003;-89
2023/03/04 00:31:16;;;;;;;;;;;5.40;84.10;;;;;;5114214;28;19935;-89
2023/03/04 00:33:43;;;;;;;;;;;5.40;85.30;;;;;;5114154;28;20286;-89
2023/03/04 00:36:09;;;;;;;;;;;5.30;85.40;;;;;;5114026;28;20051;-89
2023/03/04 00:38:34;;;;;;;;;;;5.30;85.40;;;;;;5114044;28;20465;-89
2023/03/04 00:41:00;;;;;;;;;;;5.30;84.90;;;;;;5113989;28;19977;-89
2023/03/04 00:43:25;;;;;;;;;;;5.30;84.40;;;;;;5110043;28;19965;-89
2023/03/04 00:45:51;;;;;;;;;;;5.30;84.20;;;;;;5093527;28;20394;-89
2023/03/04 00:48:16;;;;;;;;;;;5.30;84.00;;;;;;5093510;28;19955;-89
2023/03/04 00:50:42;;;;;;;;;;;5.20;83.50;;;;;;5093461;28;19941;-89
2023/03/04 00:53:08;;;;;;;;;;;5.10;83.10;;;;;;5093394;28;19959;-89
2023/03/04 00:55:34;;;;;;;;;;;5.00;83.50;;;;;;5093372;28;19961;-89
2023/03/04 00:58:00;;;;;;;;;;;4.90;83.70;;;;;;5093403;28;19940;-89
2023/03/04 01:00:25;;;;;;;;;;;4.90;84.40;;;;;;5075106;28;19939;-89
2023/03/04 01:02:51;;;;;;;;;;;4.90;84.30;;;;;;5093165;28;19969;-89
2023/03/04 01:05:16;;;;;;;;;;;4.80;84.30;;;;;;5093353;28;19949;-89
2023/03/04 01:07:42;;;;;;;;;;;4.80;84.70;;;;;;5093270;28;19942;-88
2023/03/04 01:10:10;;;;;;;;;;;4.70;85.00;;;;;;5093251;28;19942;-89
2023/03/04 01:12:35;;;;;;;;;;;4.70;85.40;;;;;;5093508;28;20438;-89
2023/03/04 01:15:01;;;;;;;;;;;4.80;85.80;;;;;;5110016;28;19964;-89
2023/03/04 01:17:26;;;;;;;;;;;4.70;86.50;;;;;;5113556;28;20413;-89
2023/03/04 01:19:52;;;;;;;;;;;4.70;88.00;;;;;;5119025;28;19977;-89
2023/03/04 01:22:17;;;;;;;;;;;4.70;88.00;;;;;;5120349;28;20335;-89
2023/03/04 01:24:43;;;;;;;;;;;4.60;87.80;;;;;;5120283;28;20031;-89
2023/03/04 01:27:09;;;;;;;;;;;4.60;87.60;;;;;;5101817;28;19944;-89
2023/03/04 01:29:34;;;;;;;;;;;4.60;88.40;;;;;;5120265;28;19940;-89
2023/03/04 01:32:00;;;;;;;;;;;4.50;88.10;;;;;;5120277;28;19941;-88
2023/03/04 01:34:25;;;;;;;;;;;4.50;88.20;;;;;;5120447;28;19954;-89
2023/03/04 01:36:51;;;;;;;;;;;4.50;88.50;;;;;;5120423;28;19942;-88
2023/03/04 01:39:16;;;;;;;;;;;4.50;88.80;;;;;;5120154;28;20358;-89
2023/03/04 01:41:42;;;;;;;;;;;4.50;88.80;;;;;;5120167;28;19935;-89
2023/03/04 01:44:08;;;;;;;;;;;4.50;87.90;;;;;;5110710;28;19951;-89
2023/03/04 01:46:33;;;;;;;;;;;4.50;87.20;;;;;;5099642;28;19988;-89
2023/03/04 01:48:59;;;;;;;;;;;4.40;87.10;;;;;;5099605;28;19943;-89
2023/03/04 01:51:24;;;;;;;;;;;4.50;86.50;;;;;;5100655;28;19953;-89
2023/03/04 01:53:52;;;;;;;;;;;4.50;86.50;;;;;;5099548;28;19990;-89
2023/03/04 01:56:19;;;;;;;;;;;4.30;85.80;;;;;;5099462;28;20048;-89
2023/03/04 01:58:44;;;;;;;;;;;4.20;86.00;;;;;;5099556;28;20056;-89
2023/03/04 02:01:16;;;;;;;;;;;4.20;85.70;;;;;;5099311;28;19976;-90
2023/03/04 02:03:42;;;;;;;;;;;4.30;86.10;;;;;;5099347;28;19974;-88
2023/03/04 02:06:07;;;;;;;;;;;4.30;86.70;;;;;;5099471;28;19944;-89
2023/03/04 02:08:33;;;;;;;;;;;4.40;87.50;;;;;;5099429;28;19938;-89
2023/03/04 02:10:58;;;;;;;;;;;4.40;88.10;;;;;;5100500;28;19951;-89
2023/03/04 02:13:24;;;;;;;;;;;4.30;88.40;;;;;;5099356;28;20419;-89
2023/03/04 02:15:50;;;;;;;;;;;4.30;89.40;;;;;;5099306;28;19964;-89
2023/03/04 02:18:19;;;;;;;;;;;4.30;89.20;;;;;;5100755;28;19947;-89
2023/03/04 02:21:03;;;;;;;;;;;4.30;89.30;;;;;;5099315;28;19937;-89
2023/03/04 02:23:47;;;;;;;;;;;4.30;89.50;;;;;;5079086;28;19947;-88
2023/03/04 02:26:13;;;;;;;;;;;4.20;89.60;;;;;;5078961;28;20417;-89
2023/03/04 02:28:39;;;;;;;;;;;4.10;89.60;;;;;;5079030;28;19942;-89
2023/03/04 02:31:04;;;;;;;;;;;4.10;89.50;;;;;;5075727;28;19944;-89
2023/03/04 02:33:32;;;;;;;;;;;4.00;89.50;;;;;;5075716;28;20034;-88
2023/03/04 02:35:58;;;;;;;;;;;4.00;89.40;;;;;;5075666;28;20031;-89
2023/03/04 02:38:23;;;;;;;;;;;4.00;89.30;;;;;;5075715;28;19985;-90
2023/03/04 02:40:51;;;;;;;;;;;4.00;88.80;;;;;;5094257;28;19989;-89
2023/03/04 02:43:16;;;;;;;;;;;4.00;88.70;;;;;;5095960;28;19945;-89
2023/03/04 02:45:46;;;;;;;;;;;4.00;88.60;;;;;;5095717;28;19967;-89
2023/03/04 02:48:12;;;;;;;;;;;3.90;89.10;;;;;;5111578;28;19945;-89
2023/03/04 02:50:42;;;;;;;;;;;3.90;89.10;;;;;;5095791;28;19948;-89
2023/03/04 02:53:08;;;;;;;;;;;3.90;89.20;;;;;;5095879;28;19995;-89
2023/03/04 02:55:34;;;;;;;;;;;3.90;89.30;;;;;;5095536;28;20392;-89
2023/03/04 02:57:59;;;;;;;;;;;3.80;89.60;;;;;;5077718;28;19990;-89
2023/03/04 03:00:25;;;;;;;;;;;3.80;89.80;;;;;;5095732;28;19976;-89
2023/03/04 03:02:51;;;;;;;;;;;3.90;89.60;;;;;;5095495;28;20341;-89
2023/03/04 03:05:16;;;;;;;;;;;3.90;88.80;;;;;;5095503;28;20382;-89
2023/03/04 03:07:42;;;;;;;;;;;3.90;88.60;;;;;;5095376;28;20034;-89
2023/03/04 03:10:08;;;;;;;;;;;3.90;88.30;;;;;;5108663;28;19947;-89
2023/03/04 03:12:33;;;;;;;;;;;3.90;88.00;;;;;;5115657;28;19951;-89
2023/03/04 03:14:59;;;;;;;;;;;3.80;88.10;;;;;;5115495;28;19971;-89
2023/03/04 03:17:25;;;;;;;;;;;3.90;88.20;;;;;;5113614;28;19944;-89
2023/03/04 03:19:50;;;;;;;;;;;3.80;87.50;;;;;;5115284;28;19998;-89
2023/03/04 03:22:16;;;;;;;;;;;3.70;87.80;;;;;;5115528;28;19941;-89
2023/03/04 03:24:41;;;;;;;;;;;3.60;88.40;;;;;;5115524;28;20301;-89
2023/03/04 03:27:07;;;;;;;;;;;3.60;89.40;;;;;;5115497;28;19940;-89
2023/03/04 03:29:32;;;;;;;;;;;3.60;90.00;;;;;;5115385;28;19938;-88
2023/03/04 03:31:58;;;;;;;;;;;3.50;90.10;;;;;;5112142;28;19951;-89
2023/03/04 03:34:23;;;;;;;;;;;3.50;90.30;;;;;;5095111;28;19963;-89
2023/03/04 03:36:49;;;;;;;;;;;3.50;90.30;;;;;;5076705;28;19950;-89
2023/03/04 03:39:14;;;;;;;;;;;3.60;90.40;;;;;;5094795;28;19937;-89
2023/03/04 03:41:40;;;;;;;;;;;3.60;90.30;;;;;;5094563;28;19935;-89
2023/03/04 03:44:06;;;;;;;;;;;3.60;90.20;;;;;;5094769;28;20448;-89
2023/03/04 03:46:31;;;;;;;;;;;3.60;89.80;;;;;;5094698;28;19940;-89
2023/03/04 03:48:57;;;;;;;;;;;3.60;89.80;;;;;;5094646;28;19937;-89
2023/03/04 03:51:22;;;;;;;;;;;3.60;89.60;;;;;;5094527;28;19949;-88
2023/03/04 03:53:48;;;;;;;;;;;3.70;89.50;;;;;;5094497;28;20007;-89
2023/03/04 03:56:13;;;;;;;;;;;3.60;89.40;;;;;;5094414;28;19956;-90
2023/03/04 03:58:39;;;;;;;;;;;3.60;89.40;;;;;;5094442;28;19942;-89
2023/03/04 04:01:04;;;;;;;;;;;3.50;89.30;;;;;;5094637;28;19999;-89
2023/03/04 04:03:30;;;;;;;;;;;3.50;88.00;;;;;;5094230;28;20055;-90
2023/03/04 04:05:55;;;;;;;;;;;3.50;87.90;;;;;;5094282;28;19936;-89
2023/03/04 04:08:21;;;;;;;;;;;3.50;87.40;;;;;;5094212;28;19939;-89
2023/03/04 04:10:46;;;;;;;;;;;3.40;87.00;;;;;;5094193;28;20344;-90
2023/03/04 04:13:12;;;;;;;;;;;3.40;86.40;;;;;;5094165;28;19938;-89
2023/03/04 04:15:38;;;;;;;;;;;3.50;86.20;;;;;;5093906;28;19969;-89
2023/03/04 04:18:04;;;;;;;;;;;3.50;86.60;;;;;;5094051;28;20032;-89
2023/03/04 04:20:29;;;;;;;;;;;3.50;86.80;;;;;;5094141;28;19944;-89
2023/03/04 04:22:55;;;;;;;;;;;3.50;86.80;;;;;;5093582;28;19947;-89
2023/03/04 04:25:20;;;;;;;;;;;3.50;86.10;;;;;;5075743;28;20315;-89
2023/03/04 04:27:46;;;;;;;;;;;3.50;86.20;;;;;;5093857;28;19946;-89
2023/03/04 04:30:11;;;;;;;;;;;3.50;86.60;;;;;;5094103;28;19945;-89
2023/03/04 04:32:37;;;;;;;;;;;3.40;86.90;;;;;;5093796;28;19938;-88
2023/03/04 04:35:03;;;;;;;;;;;3.30;86.90;;;;;;5093724;28;19976;-89
2023/03/04 04:37:28;;;;;;;;;;;3.20;87.50;;;;;;5093740;28;20457;-89
2023/03/04 04:39:54;;;;;;;;;;;3.10;88.30;;;;;;5093721;28;19940;-89
2023/03/04 04:42:20;;;;;;;;;;;3.10;88.50;;;;;;5093899;28;19947;-88
2023/03/04 04:44:46;;;;;;;;;;;3.10;88.60;;;;;;5093634;28;19981;-89
2023/03/04 04:47:11;;;;;;;;;;;3.20;88.00;;;;;;5093541;28;20018;-89
2023/03/04 04:49:37;;;;;;;;;;;3.30;87.90;;;;;;5093117;28;19945;-88
2023/03/04 04:52:02;;;;;;;;;;;3.30;87.80;;;;;;5093422;28;20400;-89
2023/03/04 04:54:28;;;;;;;;;;;3.30;88.00;;;;;;5092830;28;20499;-89
2023/03/04 04:56:53;;;;;;;;;;;3.30;88.10;;;;;;5093427;28;20220;-89
2023/03/04 04:59:19;;;;;;;;;;;3.40;88.40;;;;;;5093459;28;20391;-89
2023/03/04 05:01:44;;;;;;;;;;;3.30;87.90;;;;;;5093440;28;19945;-89
2023/03/04 05:04:10;;;;;;;;;;;3.40;87.60;;;;;;5074923;28;19987;-89
2023/03/04 05:06:36;;;;;;;;;;;3.30;87.40;;;;;;5093317;28;20390;-89
2023/03/04 05:09:02;;;;;;;;;;;3.40;87.40;;;;;;5093450;28;20100;-89
2023/03/04 05:11:27;;;;;;;;;;;3.30;87.20;;;;;;5093272;28;19937;-88
2023/03/04 05:13:53;;;;;;;;;;;3.20;87.30;;;;;;5093193;28;20056;-89
2023/03/04 05:16:18;;;;;;;;;;;3.00;88.40;;;;;;5093160;28;20019;-89
2023/03/04 05:18:44;;;;;;;;;;;3.00;88.50;;;;;;5093193;28;20042;-89
2023/03/04 05:21:10;;;;;;;;;;;3.00;89.50;;;;;;5093194;28;19942;-89
2023/03/04 05:23:37;;;;;;;;;;;3.00;89.30;;;;;;5093371;28;19940;-89
2023/03/04 05:26:03;;;;;;;;;;;3.00;89.30;;;;;;5093108;28;20397;-89
2023/03/04 05:28:29;;;;;;;;;;;2.90;89.40;;;;;;5093117;28;20309;-89
2023/03/04 05:30:54;;;;;;;;;;;2.80;88.90;;;;;;5101753;28;19946;-89
2023/03/04 05:33:20;;;;;;;;;;;2.70;89.00;;;;;;5113404;28;19968;-89
2023/03/04 05:35:47;;;;;;;;;;;2.80;88.70;;;;;;5113354;28;20401;-90
2023/03/04 05:38:14;;;;;;;;;;;2.80;88.50;;;;;;5095125;28;19942;-88
2023/03/04 05:40:40;;;;;;;;;;;2.70;89.60;;;;;;5113321;28;19940;-89
2023/03/04 05:43:06;;;;;;;;;;;2.70;90.30;;;;;;5113296;28;20402;-89
2023/03/04 05:45:32;;;;;;;;;;;2.60;90.20;;;;;;5113547;28;19951;-89
2023/03/04 05:47:58;;;;;;;;;;;2.60;89.70;;;;;;5113539;28;19946;-89
2023/03/04 05:50:23;;;;;;;;;;;2.50;89.50;;;;;;5113230;28;20316;-89
2023/03/04 05:52:49;;;;;;;;;;;2.50;89.00;;;;;;5113408;28;19961;-89
2023/03/04 05:55:15;;;;;;;;;;;2.40;89.70;;;;;;5113150;28;20454;-88
2023/03/04 05:57:40;;;;;;;;;;;2.50;90.30;;;;;;5112916;28;20340;-89
2023/03/04 06:00:09;;;;;;;;;;;2.50;91.00;;;;;;5108270;28;19945;-89
2023/03/04 06:02:35;;;;;;;;;;;2.60;91.50;;;;;;5092826;28;20399;-89
2023/03/04 06:05:01;;;;;;;;;;;2.60;91.00;;;;;;5092766;28;19957;-89
2023/03/04 06:07:27;;;;;;;;;;;2.40;90.30;;;;;;5096878;28;20393;-89
2023/03/04 06:09:52;;;;;;;;;;;2.20;90.40;;;;;;5108986;28;20357;-89
2023/03/04 06:12:18;;;;;;;;;;;2.20;91.20;;;;;;5116892;28;20414;-89
2023/03/04 06:14:43;;;;;;;;;;;2.30;91.30;;;;;;5111211;28;19939;-88
2023/03/04 06:17:09;;;;;;;;;;;2.50;91.70;;;;;;5117163;28;20255;-89
2023/03/04 06:19:36;;;;;;;;;;;2.50;91.30;;;;;;5116704;28;19989;-89
2023/03/04 06:22:02;;;;;;;;;;;2.50;91.60;;;;;;5113401;28;19940;-89
2023/03/04 06:24:28;;;;;;;;;;;2.80;91.60;;;;;;5094967;28;19954;-89
2023/03/04 06:26:53;;;;;;;;;;;3.00;91.50;;;;;;5096225;28;19941;-89
2023/03/04 06:29:19;;;;;;;;;;;3.00;91.20;;;;;;5096654;28;19942;-89
2023/03/04 06:31:44;;;;;;;;;;;3.00;90.90;;;;;;5105464;28;19988;-89
2023/03/04 06:34:10;;;;;;;;;;;3.00;90.80;;;;;;5113806;28;19948;-89
2023/03/04 06:36:36;;;;;;;;;;;3.00;90.90;;;;;;5116413;28;19940;-89
2023/03/04 06:39:02;;;;;;;;;;;3.10;90.50;;;;;;5108834;28;19948;-90
2023/03/04 06:41:28;;;;;;;;;;;3.00;90.20;;;;;;5095941;28;20072;-90
2023/03/04 06:43:53;;;;;;;;;;;3.00;90.10;;;;;;5095795;28;20038;-89
2023/03/04 06:46:19;;;;;;;;;;;3.00;89.80;;;;;;5096112;28;20020;-89
2023/03/04 06:48:44;;;;;;;;;;;2.90;90.00;;;;;;5109998;28;20113;-89
2023/03/04 06:51:10;;;;;;;;;;;2.90;90.10;;;;;;5104691;28;20010;-88
2023/03/04 06:53:37;;;;;;;;;;;2.90;90.70;;;;;;5094572;28;20485;-88
2023/03/04 06:56:02;;;;;;;;;;;3.10;91.40;;;;;;5098435;28;20078;-88
2023/03/04 06:58:28;;;;;;;;;;;3.30;91.40;;;;;;5100256;28;20047;-88
2023/03/04 07:00:54;;;;;;;;;;;3.60;91.30;;;;;;5099443;28;20398;-87
2023/03/04 07:03:19;;;;;;;;;;;3.90;91.30;;;;;;5109402;22;20066;-87
2023/03/04 07:05:45;;;;;;;;;;;4.20;90.50;;;;;;5111365;28;19984;-87
2023/03/04 07:08:10;;;;;;;;;;;4.30;89.70;;;;;;5105800;28;19947;-88
2023/03/04 07:10:36;;;;;;;;;;;4.30;89.30;;;;;;5095351;28;19959;-87
2023/03/04 07:13:01;;;;;;;;;;;4.30;89.30;;;;;;5095301;28;19939;-88
2023/03/04 07:15:27;;;;;;;;;;;4.30;89.10;;;;;;5095188;28;19963;-88
2023/03/04 07:17:53;;;;;;;;;;;4.30;89.50;;;;;;5095984;28;20392;-87
2023/03/04 07:20:19;;;;;;;;;;;4.30;89.60;;;;;;5100761;28;20475;-88
2023/03/04 07:22:44;;;;;;;;;;;4.30;89.50;;;;;;5097749;28;19951;-88
2023/03/04 07:25:10;;;;;;;;;;;4.40;89.40;;;;;;5115095;28;19949;-88
2023/03/04 07:27:37;;;;;;;;;;;4.50;89.30;;;;;;5114797;28;19990;-88
2023/03/04 07:30:03;;;;;;;;;;;4.50;89.20;;;;;;5114711;28;19984;-88
2023/03/04 07:32:29;;;;;;;;;;;4.70;88.90;;;;;;5115362;28;20030;-88
2023/03/04 07:34:55;;;;;;;;;;;4.80;88.70;;;;;;5096410;28;20544;-88
2023/03/04 07:37:20;;;;;;;;;;;4.90;88.70;;;;;;5097616;28;20417;-89
2023/03/04 07:39:46;;;;;;;;;;;5.00;88.70;;;;;;5109726;28;20288;-88
2023/03/04 07:42:11;;;;;;;;;;;5.20;88.60;;;;;;5111958;28;20443;-88
2023/03/04 07:44:37;;;;;;;;;;;5.30;88.50;;;;;;5107196;28;20040;-88
2023/03/04 07:47:02;;;;;;;;;;;5.40;88.40;;;;;;5109483;28;19965;-88
2023/03/04 07:49:28;;;;;;;;;;;5.40;88.10;;;;;;5115027;28;19936;-88
2023/03/04 07:51:53;;;;;;;;;;;5.50;88.20;;;;;;5114885;28;19937;-88
2023/03/04 07:54:19;;;;;;;;;;;5.70;87.90;;;;;;5112813;28;20014;-88
2023/03/04 07:56:44;;;;;;;;;;;5.70;87.70;;;;;;5105706;28;19948;-87
2023/03/04 07:59:10;;;;;;;;;;;5.90;87.40;;;;;;5114603;28;19943;-88
2023/03/04 08:01:36;;;;;;;;;;;6.10;87.00;;;;;;5114583;28;19936;-88
2023/03/04 08:04:03;;;;;;;;;;;6.20;86.70;;;;;;5114090;28;20023;-88
2023/03/04 08:06:29;;;;;;;;;;;6.30;86.90;;;;;;5114337;28;19977;-88
2023/03/04 08:08:56;;;;;;;;;;;6.40;86.50;;;;;;5110541;28;20359;-87
2023/03/04 08:11:21;;;;;;;;;;;6.60;86.30;;;;;;5109155;28;19949;-88
2023/03/04 08:13:47;;;;;;;;;;;6.70;86.30;;;;;;5085359;28;20369;-88
2023/03/04 08:16:16;;;;;;;;;;;6.80;86.40;;;;;;5114245;28;20041;-88
2023/03/04 08:18:42;;;;;;;;;;;7.00;86.30;;;;;;5103621;28;20443;-88
2023/03/04 08:21:09;;;;;;;;;;;7.20;85.60;;;;;;5100031;28;19949;-88
2023/03/04 08:23:35;;;;;;;;;;;7.30;84.70;;;;;;5111160;28;19982;-88
2023/03/04 08:26:04;;;;;;;;;;;7.50;84.40;;;;;;5096463;28;19980;-88
2023/03/04 08:28:30;;;;;;;;;;;7.70;83.70;;;;;;5103737;28;19981;-88
2023/03/04 08:30:55;;;;;;;;;;;7.80;83.20;;;;;;5114032;28;19996;-88
2023/03/04 08:33:21;;;;;;;;;;;8.00;82.60;;;;;;5113898;28;19952;-88
2023/03/04 08:35:46;;;;;;;;;;;8.20;79.50;;;;;;5101035;28;19968;-88
2023/03/04 08:38:12;;;;;;;;;;;8.20;76.70;;;;;;5092870;28;19949;-87
2023/03/04 08:40:37;;;;;;;;;;;8.40;76.70;;;;;;5113510;28;19941;-87
2023/03/04 08:43:03;;;;;;;;;;;8.50;78.10;;;;;;5113736;28;19940;-88
2023/03/04 08:45:28;;;;;;;;;;;8.60;78.80;;;;;;5109086;28;19969;-88
2023/03/04 08:47:54;;;;;;;;;;;8.70;78.70;;;;;;5112981;28;19940;-87
2023/03/04 08:50:20;;;;;;;;;;;8.80;78.50;;;;;;5113535;28;19937;-87
2023/03/04 08:52:46;;;;;;;;;;;8.90;78.90;;;;;;5113547;28;19989;-88
2023/03/04 08:55:11;;;;;;;;;;;9.10;78.80;;;;;;5112965;28;20002;-88
2023/03/04 08:57:37;;;;;;;;;;;9.20;77.40;;;;;;5099043;28;20402;-87
2023/03/04 09:00:03;;;;;;;;;;;9.40;78.00;;;;;;5092934;28;19936;-88
2023/03/04 09:02:29;;;;;;;;;;;9.40;76.50;;;;;;5093028;28;19940;-87
2023/03/04 09:04:54;;;;;;;;;;;9.70;77.20;;;;;;5104330;28;20057;-88
2023/03/04 09:07:20;;;;;;;;;;;9.80;73.80;;;;;;5113381;28;19938;-88
2023/03/04 09:09:45;;;;;;;;;;;9.90;73.10;;;;;;5113067;28;19950;-88
2023/03/04 09:12:11;;;;;;;;;;;9.90;72.80;;;;;;5113812;28;19974;-89
2023/03/04 09:14:36;;;;;;;;;;;10.00;72.90;;;;;;5110733;28;20491;-88
2023/03/04 09:17:02;;;;;;;;;;;10.10;73.20;;;;;;5111953;28;19947;-89
2023/03/04 09:19:28;;;;;;;;;;;10.30;74.00;;;;;;5113394;28;20378;-88
2023/03/04 09:21:54;;;;;;;;;;;10.40;73.40;;;;;;5113609;28;19940;-87
2023/03/04 09:24:20;;;;;;;;;;;10.60;71.00;;;;;;5097758;28;19948;-88
2023/03/04 09:26:48;;;;;;;;;;;10.60;70.70;;;;;;5109691;28;19953;-87
2023/03/04 09:29:14;;;;;;;;;;;10.80;70.60;;;;;;5113229;28;19939;-88
2023/03/04 09:31:39;;;;;;;;;;;10.80;70.90;;;;;;5113287;28;19949;-88
2023/03/04 09:34:05;;;;;;;;;;;10.90;69.30;;;;;;5099165;28;19944;-88
2023/03/04 09:36:30;;;;;;;;;;;11.10;68.00;;;;;;5092873;28;19944;-88
2023/03/04 09:39:00;;;;;;;;;;;11.10;68.00;;;;;;5113161;28;20452;-88
2023/03/04 09:41:32;;;;;;;;;;;11.30;65.80;;;;;;5117355;28;20029;-89
2023/03/04 09:43:57;;;;;;;;;;;11.40;64.10;;;;;;5117447;28;19937;-89
2023/03/04 09:46:34;;;;;;;;;;;11.60;61.60;;;;;;5115897;28;19948;-89
2023/03/04 09:48:59;;;;;;;;;;;11.60;64.40;;;;;;5110289;28;19992;-89
2023/03/04 09:51:34;;;;;;;;;;;11.80;65.10;;;;;;5096804;28;19947;-89
2023/03/04 09:53:59;;;;;;;;;;;12.00;63.80;;;;;;5103076;28;19957;-87
2023/03/04 09:56:26;;;;;;;;;;;12.10;58.80;;;;;;5117041;28;19963;-88
2023/03/04 09:58:51;;;;;;;;;;;12.30;57.80;;;;;;5110467;28;20015;-88
2023/03/04 10:01:29;;;;;;;;;;;12.30;54.90;;;;;;5102940;28;19946;-88
2023/03/04 10:04:01;;;;;;;;;;;12.20;57.20;;;;;;5114685;28;19970;-88
2023/03/04 10:06:29;;;;;;;;;;;12.20;62.00;;;;;;5116458;28;20232;-88
2023/03/04 10:09:00;;;;;;;;;;;12.30;62.20;;;;;;5116842;28;19936;-88
2023/03/04 10:11:34;;;;;;;;;;;12.40;58.50;;;;;;5116893;28;19942;-88
2023/03/04 10:14:18;;;;;;;;;;;12.30;59.20;;;;;;5104469;28;19945;-88
2023/03/04 10:16:57;;;;;;;;;;;12.40;60.00;;;;;;5100963;28;19958;-89
2023/03/04 10:19:22;;;;;;;;;;;12.40;61.50;;;;;;5096547;28;19937;-88
2023/03/04 10:21:49;;;;;;;;;;;12.50;62.20;;;;;;5096037;28;19944;-88
2023/03/04 10:24:17;;;;;;;;;;;12.60;60.80;;;;;;5096138;28;19940;-89
2023/03/04 10:26:48;;;;;;;;;;;12.70;59.10;;;;;;5105958;28;19951;-89
2023/03/04 10:29:17;;;;;;;;;;;12.80;58.40;;;;;;5116517;28;19944;-89
2023/03/04 10:31:43;;;;;;;;;;;12.90;59.40;;;;;;5116533;28;19936;-88
2023/03/04 10:34:10;;;;;;;;;;;13.00;58.50;;;;;;5103024;28;19969;-88
2023/03/04 10:36:38;;;;;;;;;;;12.90;57.70;;;;;;5097273;28;19961;-89
2023/03/04 10:39:06;;;;;;;;;;;13.00;59.80;;;;;;5104437;28;19988;-89
2023/03/04 10:41:32;;;;;;;;;;;13.10;56.10;;;;;;5115853;28;19948;-88
2023/03/04 10:44:02;;;;;;;;;;;13.20;56.70;;;;;;5111116;28;19965;-88
2023/03/04 10:46:28;;;;;;;;;;;13.30;57.00;;;;;;5116203;28;19943;-88
2023/03/04 10:48:54;;;;;;;;;;;13.40;56.90;;;;;;5110955;28;19995;-88
2023/03/04 10:51:27;;;;;;;;;;;13.40;57.30;;;;;;5104012;28;19940;-88
2023/03/04 10:54:03;;;;;;;;;;;13.40;56.60;;;;;;5095804;28;19965;-89
2023/03/04 10:56:44;;;;;;;;;;;13.50;53.40;;;;;;5095471;28;19953;-88
2023/03/04 10:59:28;;;;;;;;;;;13.50;52.50;;;;;;5095588;28;19941;-88
2023/03/04 11:01:53;;;;;;;;;;;13.50;53.50;;;;;;5095348;28;19930;-88
2023/03/04 11:04:22;;;;;;;;;;;13.50;56.50;;;;;;5109327;28;20350;-88
2023/03/04 11:06:47;;;;;;;;;;;13.60;58.30;;;;;;5115773;28;19934;-88
2023/03/04 11:09:21;;;;;;;;;;;13.60;53.00;;;;;;5115760;28;19937;-88
2023/03/04 11:11:48;;;;;;;;;;;13.60;56.40;;;;;;5115735;28;19952;-88
2023/03/04 11:14:28;;;;;;;;;;;13.40;53.30;;;;;;5115840;28;19931;-88
2023/03/04 11:17:01;;;;;;;;;;;13.60;53.20;;;;;;5115873;28;19947;-89
2023/03/04 11:19:47;;;;;;;;;;;13.90;53.70;;;;;;5115533;28;20404;-88
2023/03/04 11:22:17;;;;;;;;;;;14.00;51.80;;;;;;5115420;28;19938;-88
2023/03/04 11:24:43;;;;;;;;;;;13.90;53.30;;;;;;5115413;28;19957;-89
2023/03/04 11:27:08;;;;;;;;;;;13.90;53.50;;;;;;5115340;28;19942;-88
2023/03/04 11:29:40;;;;;;;;;;;13.90;52.30;;;;;;5115380;28;19940;-88
2023/03/04 11:32:14;;;;;;;;;;;14.00;52.60;;;;;;5115303;28;19939;-89
2023/03/04 11:34:49;;;;;;;;;;;14.20;52.60;;;;;;5098033;28;19971;-88
2023/03/04 11:37:20;;;;;;;;;;;14.10;51.60;;;;;;5094794;28;20302;-89
2023/03/04 11:39:48;;;;;;;;;;;14.10;52.90;;;;;;5094808;28;19975;-88
2023/03/04 11:42:23;;;;;;;;;;;14.30;54.00;;;;;;5094728;28;20407;-88
2023/03/04 11:44:49;;;;;;;;;;;14.40;53.10;;;;;;5094657;28;19937;-88
2023/03/04 11:47:36;;;;;;;;;;;14.70;51.00;;;;;;5094650;28;19940;-89
2023/03/04 11:50:08;;;;;;;;;;;15.00;50.70;;;;;;5076439;28;19946;-88
2023/03/04 11:52:39;;;;;;;;;;;14.90;52.30;;;;;;5094788;28;20004;-88
2023/03/04 11:55:07;;;;;;;;;;;14.60;51.20;;;;;;5094437;28;20428;-88
2023/03/04 11:57:39;;;;;;;;;;;14.70;52.90;;;;;;5094389;28;19983;-88
2023/03/04 12:00:04;;;;;;;;;;;14.80;50.90;;;;;;5094406;28;19948;-88
2023/03/04 12:02:35;;;;;;;;;;;14.80;51.20;;;;;;5076852;28;19947;-88
2023/03/04 12:05:16;;;;;;;;;;;14.80;50.70;;;;;;5104665;28;20003;-88
2023/03/04 12:07:41;;;;;;;;;;;15.00;50.50;;;;;;5094249;28;19967;-88
2023/03/04 12:10:25;;;;;;;;;;;15.10;50.60;;;;;;5094289;28;20308;-88
2023/03/04 12:13:00;;;;;;;;;;;15.30;51.40;;;;;;5094167;28;19938;-89
2023/03/04 12:15:48;;;;;;;;;;;15.70;50.90;;;;;;5094039;28;20364;-88
2023/03/04 12:18:32;;;;;;;;;;;15.50;50.20;;;;;;5093689;28;20456;-89
2023/03/04 12:21:10;;;;;;;;;;;15.50;48.00;;;;;;5094058;28;19986;-88
2023/03/04 12:23:54;;;;;;;;;;;15.80;48.40;;;;;;5094261;28;19951;-89
2023/03/04 12:26:25;;;;;;;;;;;16.20;48.90;;;;;;5095767;28;19945;-88
2023/03/04 12:29:07;;;;;;;;;;;16.50;48.00;;;;;;5114304;28;19950;-88
2023/03/04 12:31:44;;;;;;;;;;;17.10;46.20;;;;;;5114223;28;19972;-89
2023/03/04 12:34:28;;;;;;;;;;;17.60;44.80;;;;;;5114201;28;19982;-88
2023/03/04 12:36:58;;;;;;;;;;;18.00;46.50;;;;;;5111678;28;19956;-88
2023/03/04 12:39:38;;;;;;;;;;;18.30;46.60;;;;;;5114115;28;19938;-89
2023/03/04 12:42:23;;;;;;;;;;;18.70;42.60;;;;;;5114044;28;19941;-88
2023/03/04 12:44:54;;;;;;;;;;;19.20;43.60;;;;;;5114042;28;19963;-89
2023/03/04 12:47:27;;;;;;;;;;;19.00;43.20;;;;;;5114019;28;19990;-88
2023/03/04 12:49:56;;;;;;;;;;;19.00;44.30;;;;;;5113923;28;20006;-88
2023/03/04 12:52:21;;;;;;;;;;;18.90;43.10;;;;;;5113767;28;19959;-88
2023/03/04 12:54:49;;;;;;;;;;;18.90;41.90;;;;;;5095586;28;19990;-89
2023/03/04 12:57:21;;;;;;;;;;;18.60;44.00;;;;;;5104053;28;19944;-89
2023/03/04 12:59:50;;;;;;;;;;;18.80;42.50;;;;;;5093365;28;19957;-88
2023/03/04 13:02:34;;;;;;;;;;;18.60;42.70;;;;;;5093361;28;20403;-89
2023/03/04 13:05:03;;;;;;;;;;;18.40;44.10;;;;;;5093361;28;19958;-89
2023/03/04 13:07:40;;;;;;;;;;;19.40;40.90;;;;;;5093287;28;20458;-89
2023/03/04 13:10:13;;;;;;;;;;;19.60;42.60;;;;;;5093259;28;20440;-89
2023/03/04 13:12:51;;;;;;;;;;;19.10;44.70;;;;;;5093238;28;20035;-88
2023/03/04 13:15:19;;;;;;;;;;;19.00;42.70;;;;;;5074550;28;20008;-89
2023/03/04 13:17:49;;;;;;;;;;;19.20;43.90;;;;;;5093188;28;19966;-88
2023/03/04 13:20:23;;;;;;;;;;;19.20;41.70;;;;;;5093128;28;19943;-89
2023/03/04 13:22:49;;;;;;;;;;;19.70;40.20;;;;;;5093104;28;20413;-89
2023/03/04 13:25:30;;;;;;;;;;;19.80;41.20;;;;;;5092956;28;19937;-89
2023/03/04 13:28:01;;;;;;;;;;;19.10;42.60;;;;;;5107445;28;19942;-89
2023/03/04 13:30:30;;;;;;;;;;;19.30;42.10;;;;;;5110179;28;20029;-89
2023/03/04 13:33:07;;;;;;;;;;;18.60;41.80;;;;;;5074869;28;20351;-89
2023/03/04 13:35:48;;;;;;;;;;;19.10;44.20;;;;;;5074854;28;20049;-89
2023/03/04 13:38:29;;;;;;;;;;;19.20;42.30;;;;;;5092944;28;19937;-88
2023/03/04 13:41:13;;;;;;;;;;;18.50;45.00;;;;;;5092938;28;20437;-89
2023/03/04 13:43:42;;;;;;;;;;;18.30;45.70;;;;;;5092955;28;19973;-89
2023/03/04 13:46:17;;;;;;;;;;;18.30;43.80;;;;;;5093168;28;19941;-88
2023/03/04 13:49:03;;;;;;;;;;;18.70;43.40;;;;;;5092909;28;19946;-88
2023/03/04 13:51:40;;;;;;;;;;;18.80;45.10;;;;;;5108115;28;19950;-89
2023/03/04 13:54:18;;;;;;;;;;;18.70;44.50;;;;;;5092805;28;20041;-89
2023/03/04 13:56:47;;;;;;;;;;;18.10;44.00;;;;;;5096949;28;19955;-89
2023/03/04 13:59:15;;;;;;;;;;;17.80;45.20;;;;;;5113448;28;20000;-89
2023/03/04 14:02:00;;;;;;;;;;;17.90;45.00;;;;;;5113105;28;19938;-89
2023/03/04 14:04:34;;;;;;;;;;;18.00;43.90;;;;;;5112957;28;20025;-89
2023/03/04 14:07:01;;;;;;;;;;;18.10;43.20;;;;;;5113152;28;20224;-89
2023/03/04 14:09:28;;;;;;;;;;;18.50;45.70;;;;;;5113129;28;19936;-89
2023/03/04 14:11:57;;;;;;;;;;;19.10;42.00;;;;;;5113082;28;19939;-89
2023/03/04 14:14:25;;;;;;;;;;;19.40;43.30;;;;;;5113277;28;19941;-89
2023/03/04 14:16:52;;;;;;;;;;;19.20;44.10;;;;;;5112955;28;19995;-90
2023/03/04 14:19:26;;;;;;;;;;;18.80;42.50;;;;;;5113014;28;20406;-89
2023/03/04 14:21:52;;;;;;;;;;;18.80;43.00;;;;;;5113002;28;19946;-90
2023/03/04 14:24:18;;;;;;;;;;;19.00;43.80;;;;;;5112967;28;19938;-89
2023/03/04 14:26:44;;;;;;;;;;;18.40;43.80;;;;;;5109314;28;20001;-89
2023/03/04 14:29:20;;;;;;;;;;;18.30;44.20;;;;;;5096149;28;19944;-89
2023/03/04 14:31:46;;;;;;;;;;;18.30;44.50;;;;;;5096184;28;19976;-89